createdAt,value
2022-08-07T00:00:29.068Z,16.84
2022-08-07T00:01:44.256Z,16.78
2022-08-07T00:02:40.559Z,16.76
2022-08-07T00:03:29.097Z,16.75
2022-08-07T00:04:29.142Z,16.77
2022-08-07T00:05:28.986Z,16.77
2022-08-07T00:06:33.454Z,16.76
2022-08-07T00:07:36.885Z,16.76
2022-08-07T00:08:28.969Z,16.75
2022-08-07T00:09:35.648Z,16.72
2022-08-07T00:10:29.600Z,16.71
2022-08-07T00:11:29.954Z,16.7
2022-08-07T00:12:29.007Z,16.69
2022-08-07T00:13:28.965Z,16.68
2022-08-07T00:14:30.364Z,16.68
2022-08-07T00:15:37.844Z,16.66
2022-08-07T00:16:28.991Z,16.63
2022-08-07T00:17:35.249Z,16.66
2022-08-07T00:18:29.091Z,16.67
2022-08-07T00:20:00.359Z,16.66
2022-08-07T00:20:29.986Z,16.64
2022-08-07T00:21:57.225Z,16.64
2022-08-07T00:22:35.398Z,16.65
2022-08-07T00:23:30.147Z,16.63
2022-08-07T00:24:28.933Z,16.63
2022-08-07T00:25:28.969Z,16.6
2022-08-07T00:26:49.363Z,16.56
2022-08-07T00:27:35.740Z,16.53
2022-08-07T00:28:34.097Z,16.48
2022-08-07T00:29:31.480Z,16.46
2022-08-07T00:30:29.048Z,16.44
2022-08-07T00:31:38.132Z,16.44
2022-08-07T00:32:29.322Z,16.42
2022-08-07T00:33:28.903Z,16.42
2022-08-07T00:34:28.892Z,16.43
2022-08-07T00:35:29.678Z,16.46
2022-08-07T00:36:29.264Z,16.46
2022-08-07T00:37:29.417Z,16.47
2022-08-07T00:38:31.338Z,16.48
2022-08-07T00:39:32.056Z,16.49
2022-08-07T00:40:36.257Z,16.48
2022-08-07T00:41:28.966Z,16.51
2022-08-07T00:42:29.393Z,16.51
2022-08-07T00:43:59.717Z,16.55
2022-08-07T00:44:29.308Z,16.54
2022-08-07T00:45:28.987Z,16.51
2022-08-07T00:46:29.318Z,16.49
2022-08-07T00:48:07.964Z,16.46
2022-08-07T00:48:31.926Z,16.49
2022-08-07T00:50:20.774Z,16.51
2022-08-07T00:50:46.708Z,16.53
2022-08-07T00:51:57.112Z,16.51
2022-08-07T00:52:29.079Z,16.45
2022-08-07T00:53:39.416Z,16.39
2022-08-07T00:54:29.002Z,16.34
2022-08-07T00:56:02.707Z,16.3
2022-08-07T00:56:30.392Z,16.28
2022-08-07T00:57:29.179Z,16.32
2022-08-07T00:58:29.092Z,16.38
2022-08-07T00:59:35.426Z,16.41
2022-08-07T01:00:29.056Z,16.39
2022-08-07T01:01:44.035Z,16.4
2022-08-07T01:02:29.674Z,16.38
2022-08-07T01:03:54.624Z,16.33
2022-08-07T01:04:30.244Z,16.36
2022-08-07T01:05:28.972Z,16.35
2022-08-07T01:06:29.249Z,16.33
2022-08-07T01:07:30.979Z,16.32
2022-08-07T01:08:29.035Z,16.31
2022-08-07T01:10:04.196Z,16.31
2022-08-07T01:10:28.982Z,16.32
2022-08-07T01:12:23.499Z,16.33
2022-08-07T01:12:34.930Z,16.32
2022-08-07T01:13:29.083Z,16.36
2022-08-07T01:14:29.241Z,16.34
2022-08-07T01:16:00.712Z,16.32
2022-08-07T01:16:30.070Z,16.33
2022-08-07T01:17:29.540Z,16.29
2022-08-07T01:18:28.960Z,16.23
2022-08-07T01:19:32.630Z,16.2
2022-08-07T01:20:30.841Z,16.19
2022-08-07T01:21:28.967Z,16.25
2022-08-07T01:22:29.651Z,16.26
2022-08-07T01:23:36.346Z,16.27
2022-08-07T01:24:29.095Z,16.24
2022-08-07T01:25:53.646Z,16.2
2022-08-07T01:26:29.276Z,16.17
2022-08-07T01:27:32.361Z,16.18
2022-08-07T01:28:28.896Z,16.22
2022-08-07T01:29:31.312Z,16.19
2022-08-07T01:30:29.070Z,16.18
2022-08-07T01:31:30.001Z,16.16
2022-08-07T01:32:29.078Z,16.14
2022-08-07T01:33:53.488Z,16.18
2022-08-07T01:34:31.937Z,16.19
2022-08-07T01:35:53.536Z,16.17
2022-08-07T01:36:33.654Z,16.15
2022-08-07T01:37:29.528Z,16.18
2022-08-07T01:38:29.185Z,16.19
2022-08-07T01:39:39.599Z,16.19
2022-08-07T01:40:31.900Z,16.21
2022-08-07T01:41:29.026Z,16.23
2022-08-07T01:42:40.249Z,16.21
2022-08-07T01:43:34.578Z,16.16
2022-08-07T01:44:29.349Z,16.1
2022-08-07T01:45:36.374Z,16.06
2022-08-07T01:46:29.234Z,16.06
2022-08-07T01:48:20.039Z,16.03
2022-08-07T01:48:30.552Z,15.99
2022-08-07T01:49:28.885Z,15.97
2022-08-07T01:50:29.346Z,15.99
2022-08-07T01:52:02.524Z,16
2022-08-07T01:52:29.076Z,15.98
2022-08-07T01:54:11.925Z,15.99
2022-08-07T01:54:36.379Z,16.01
2022-08-07T01:55:29.000Z,16
2022-08-07T01:56:29.238Z,15.97
2022-08-07T01:57:29.026Z,15.99
2022-08-07T01:58:33.059Z,16.02
2022-08-07T01:59:31.046Z,16.03
2022-08-07T02:00:29.216Z,15.99
2022-08-07T02:02:02.494Z,15.98
2022-08-07T02:03:11.653Z,15.95
2022-08-07T02:03:32.037Z,15.91
2022-08-07T02:04:30.370Z,15.95
2022-08-07T02:05:47.768Z,15.9
2022-08-07T02:06:31.344Z,15.88
2022-08-07T02:07:36.176Z,15.9
2022-08-07T02:08:29.031Z,15.88
2022-08-07T02:09:51.669Z,15.84
2022-08-07T02:10:28.913Z,15.84
2022-08-07T02:11:30.690Z,15.85
2022-08-07T02:12:31.150Z,15.84
2022-08-07T02:13:57.567Z,15.78
2022-08-07T02:14:36.217Z,15.78
2022-08-07T02:15:29.071Z,15.78
2022-08-07T02:16:33.344Z,15.81
2022-08-07T02:17:31.830Z,15.8
2022-08-07T02:18:29.936Z,15.79
2022-08-07T02:20:05.177Z,15.81
2022-08-07T02:20:29.019Z,15.81
2022-08-07T02:21:56.787Z,15.8
2022-08-07T02:22:29.080Z,15.78
2022-08-07T02:23:29.020Z,15.75
2022-08-07T02:24:31.974Z,15.72
2022-08-07T02:26:10.770Z,15.76
2022-08-07T02:26:33.072Z,15.73
2022-08-07T02:27:34.370Z,15.75
2022-08-07T02:28:29.064Z,15.77
2022-08-07T02:29:29.322Z,15.79
2022-08-07T02:30:28.889Z,15.81
2022-08-07T02:31:29.570Z,15.79
2022-08-07T02:32:30.004Z,15.79
2022-08-07T02:33:32.834Z,15.78
2022-08-07T02:34:29.064Z,15.79
2022-08-07T02:36:30.568Z,15.78
2022-08-07T02:36:32.726Z,15.73
2022-08-07T02:37:34.069Z,15.71
2022-08-07T02:38:31.798Z,15.71
2022-08-07T02:39:43.636Z,15.67
2022-08-07T02:40:33.251Z,15.69
2022-08-07T02:41:33.504Z,15.71
2022-08-07T02:42:29.023Z,15.67
2022-08-07T02:43:29.073Z,15.63
2022-08-07T02:44:34.843Z,15.59
2022-08-07T02:46:00.331Z,15.59
2022-08-07T02:46:34.960Z,15.56
2022-08-07T02:47:29.053Z,15.53
2022-08-07T02:48:29.022Z,15.49
2022-08-07T02:49:57.644Z,15.47
2022-08-07T02:50:30.883Z,15.46
2022-08-07T02:51:42.785Z,15.49
2022-08-07T02:52:32.035Z,15.54
2022-08-07T02:53:28.994Z,15.52
2022-08-07T02:54:28.967Z,15.48
2022-08-07T02:56:03.622Z,15.46
2022-08-07T02:56:29.349Z,15.41
2022-08-07T02:57:34.247Z,15.31
2022-08-07T02:58:29.009Z,15.25
2022-08-07T02:59:29.247Z,15.24
2022-08-07T03:00:30.385Z,15.25
2022-08-07T03:01:36.353Z,15.4
2022-08-07T03:02:28.889Z,15.39
2022-08-07T03:03:29.598Z,15.35
2022-08-07T03:04:29.021Z,15.32
2022-08-07T03:05:35.738Z,15.32
2022-08-07T03:06:33.294Z,15.3
2022-08-07T03:08:05.261Z,15.32
2022-08-07T03:08:31.995Z,15.33
2022-08-07T03:09:43.377Z,15.34
2022-08-07T03:10:29.031Z,15.34
2022-08-07T03:11:29.240Z,15.35
2022-08-07T03:12:31.034Z,15.33
2022-08-07T03:13:29.021Z,15.29
2022-08-07T03:14:29.238Z,15.3
2022-08-07T03:15:47.657Z,15.3
2022-08-07T03:16:29.244Z,15.29
2022-08-07T03:17:29.386Z,15.31
2022-08-07T03:18:34.900Z,15.28
2022-08-07T03:19:37.028Z,15.26
2022-08-07T03:20:29.060Z,15.27
2022-08-07T03:21:32.826Z,15.28
2022-08-07T03:22:30.198Z,15.28
2022-08-07T03:23:33.652Z,15.24
2022-08-07T03:24:29.032Z,15.21
2022-08-07T03:25:32.445Z,15.18
2022-08-07T03:26:29.314Z,15.17
2022-08-07T03:27:30.620Z,15.18
2022-08-07T03:28:38.344Z,15.17
2022-08-07T03:29:29.238Z,15.13
2022-08-07T03:30:29.021Z,15.14
2022-08-07T03:31:42.404Z,15.15
2022-08-07T03:32:29.007Z,15.16
2022-08-07T03:33:32.316Z,15.19
2022-08-07T03:34:29.042Z,15.16
2022-08-07T03:35:43.946Z,15.12
2022-08-07T03:36:29.363Z,15.06
2022-08-07T03:37:29.178Z,15
2022-08-07T03:38:31.121Z,15.04
2022-08-07T03:39:46.456Z,15.08
2022-08-07T03:40:30.939Z,15.08
2022-08-07T03:41:42.173Z,15.07
2022-08-07T03:42:29.020Z,15.08
2022-08-07T03:43:32.285Z,15.06
2022-08-07T03:44:34.259Z,15.04
2022-08-07T03:45:30.427Z,15.06
2022-08-07T03:46:34.872Z,15.06
2022-08-07T03:47:29.654Z,15.08
2022-08-07T03:48:29.686Z,15.07
2022-08-07T03:49:28.980Z,15.03
2022-08-07T03:50:29.119Z,15.06
2022-08-07T03:51:30.937Z,15.06
2022-08-07T03:52:29.011Z,15.03
2022-08-07T03:54:00.812Z,15.01
2022-08-07T03:54:35.488Z,15.04
2022-08-07T03:55:52.887Z,15.03
2022-08-07T03:56:33.443Z,15.03
2022-08-07T03:58:32.541Z,15.05
2022-08-07T03:59:05.064Z,15.03
2022-08-07T03:59:29.329Z,14.99
2022-08-07T04:00:33.217Z,14.98
2022-08-07T04:01:29.335Z,14.95
2022-08-07T04:02:29.060Z,14.92
2022-08-07T04:03:28.974Z,14.91
2022-08-07T04:04:28.990Z,14.91
2022-08-07T04:05:40.231Z,14.9
2022-08-07T04:06:37.040Z,14.85
2022-08-07T04:07:41.815Z,14.79
2022-08-07T04:08:31.981Z,14.93
2022-08-07T04:09:38.092Z,14.97
2022-08-07T04:10:29.506Z,14.98
2022-08-07T04:12:27.062Z,14.95
2022-08-07T04:12:29.210Z,14.93
2022-08-07T04:13:29.103Z,14.93
2022-08-07T04:14:39.044Z,14.92
2022-08-07T04:15:28.975Z,14.9
2022-08-07T04:16:31.585Z,14.87
2022-08-07T04:18:56.346Z,14.75
2022-08-07T04:18:57.225Z,14.83
2022-08-07T04:19:34.120Z,14.87
2022-08-07T04:20:29.102Z,14.88
2022-08-07T04:21:31.191Z,14.89
2022-08-07T04:22:30.008Z,14.87
2022-08-07T04:23:43.723Z,14.87
2022-08-07T04:24:33.653Z,14.88
2022-08-07T04:25:29.552Z,14.87
2022-08-07T04:26:29.312Z,14.88
2022-08-07T04:27:29.075Z,14.88
2022-08-07T04:28:28.992Z,14.81
2022-08-07T04:29:30.471Z,14.9
2022-08-07T04:30:43.675Z,14.91
2022-08-07T04:31:38.667Z,14.83
2022-08-07T04:32:33.945Z,14.92
2022-08-07T04:33:28.959Z,14.96
2022-08-07T04:34:33.229Z,14.96
2022-08-07T04:35:35.348Z,14.96
2022-08-07T04:36:29.246Z,14.98
2022-08-07T04:37:28.906Z,14.94
2022-08-07T04:38:28.971Z,14.95
2022-08-07T04:39:29.091Z,14.85
2022-08-07T04:40:29.963Z,14.85
2022-08-07T04:41:37.001Z,14.92
2022-08-07T04:42:29.081Z,14.96
2022-08-07T04:44:12.443Z,14.97
2022-08-07T04:44:29.251Z,15
2022-08-07T04:45:57.941Z,15.01
2022-08-07T04:46:34.390Z,15.04
2022-08-07T04:48:01.343Z,15.05
2022-08-07T04:48:28.899Z,15.08
2022-08-07T04:49:29.332Z,15.1
2022-08-07T04:50:28.976Z,15.08
2022-08-07T04:51:29.315Z,15.08
2022-08-07T04:52:31.987Z,15.08
2022-08-07T04:53:40.171Z,15
2022-08-07T04:54:30.258Z,15.02
2022-08-07T04:58:10.890Z,14.98
2022-08-07T04:58:13.258Z,14.98
2022-08-07T04:58:33.785Z,15.05
2022-08-07T05:00:12.686Z,15.09
2022-08-07T05:00:17.285Z,15.09
2022-08-07T05:01:18.236Z,15.14
2022-08-07T05:02:16.897Z,15.18
2022-08-07T05:03:59.676Z,15.2
2022-08-07T05:04:17.405Z,15.23
2022-08-07T05:05:52.631Z,15.23
2022-08-07T05:06:19.374Z,15.25
2022-08-07T05:07:19.998Z,15.28
2022-08-07T05:08:15.718Z,15.32
2022-08-07T05:09:15.780Z,15.33
2022-08-07T05:10:15.739Z,15.36
2022-08-07T05:11:19.300Z,15.37
2022-08-07T05:12:15.764Z,15.38
2022-08-07T05:14:52.970Z,15.42
2022-08-07T05:14:53.106Z,15.4
2022-08-07T05:16:04.620Z,15.46
2022-08-07T05:17:05.925Z,15.47
2022-08-07T05:18:08.639Z,15.5
2022-08-07T05:19:02.315Z,15.52
2022-08-07T05:20:05.400Z,15.53
2022-08-07T05:21:08.253Z,15.56
2022-08-07T05:22:04.728Z,15.59
2022-08-07T05:23:02.289Z,15.62
2022-08-07T05:24:02.310Z,15.63
2022-08-07T05:25:02.247Z,15.64
2022-08-07T05:26:13.625Z,15.68
2022-08-07T05:27:02.272Z,15.7
2022-08-07T05:28:20.036Z,15.73
2022-08-07T05:29:04.111Z,15.76
2022-08-07T05:30:02.619Z,15.8
2022-08-07T05:31:03.631Z,15.85
2022-08-07T05:32:05.308Z,15.86
2022-08-07T05:33:02.583Z,15.89
2022-08-07T05:34:05.870Z,15.9
2022-08-07T05:35:02.369Z,15.9
2022-08-07T05:36:02.616Z,15.94
2022-08-07T05:37:02.384Z,15.96
2022-08-07T05:38:09.108Z,15.99
2022-08-07T05:40:05.710Z,16.01
2022-08-07T05:40:14.282Z,16.04
2022-08-07T05:41:12.298Z,16.07
2022-08-07T05:42:05.282Z,16.13
2022-08-07T05:43:05.272Z,16.17
2022-08-07T05:44:08.334Z,16.2
2022-08-07T05:45:14.705Z,16.23
2022-08-07T05:46:02.546Z,16.27
2022-08-07T05:47:17.890Z,16.32
2022-08-07T05:48:03.105Z,16.4
2022-08-07T05:49:11.632Z,16.45
2022-08-07T05:50:02.271Z,16.55
2022-08-07T05:51:03.294Z,17.07
2022-08-07T05:52:02.301Z,18.43
2022-08-07T05:53:02.218Z,20.29
2022-08-07T05:54:13.457Z,22.04
2022-08-07T05:55:07.261Z,23.8
2022-08-07T05:56:05.572Z,25.24
2022-08-07T05:57:02.358Z,26.28
2022-08-07T05:58:02.375Z,27.18
2022-08-07T05:59:02.312Z,28.05
2022-08-07T06:00:02.537Z,28.72
2022-08-07T06:01:05.049Z,29.04
2022-08-07T06:02:02.464Z,29.09
2022-08-07T06:03:02.369Z,29.43
2022-08-07T06:04:02.296Z,29.42
2022-08-07T06:05:05.634Z,29.29
2022-08-07T06:06:02.559Z,29.32
2022-08-07T06:07:03.915Z,29.43
2022-08-07T06:08:14.135Z,29.31
2022-08-07T06:09:04.597Z,29.53
2022-08-07T06:10:05.098Z,29.42
2022-08-07T06:11:03.833Z,28.91
2022-08-07T06:12:02.200Z,28.95
2022-08-07T06:13:02.428Z,29.25
2022-08-07T06:14:12.466Z,29.13
2022-08-07T06:15:05.647Z,28.9
2022-08-07T06:16:08.245Z,28.56
2022-08-07T06:17:02.381Z,28.44
2022-08-07T06:18:02.280Z,28.83
2022-08-07T06:19:02.492Z,29.22
2022-08-07T06:20:04.041Z,29.1
2022-08-07T06:22:14.759Z,29.13
2022-08-07T06:22:16.781Z,28.71
2022-08-07T06:23:25.046Z,28.79
2022-08-07T06:24:45.438Z,29.38
2022-08-07T06:25:02.949Z,30.07
2022-08-07T06:26:02.552Z,30.55
2022-08-07T06:27:03.783Z,31.09
2022-08-07T06:28:02.738Z,30.9
2022-08-07T06:29:02.322Z,30.76
2022-08-07T06:30:02.540Z,31.09
2022-08-07T06:31:02.550Z,31.01
2022-08-07T06:32:02.344Z,30.92
2022-08-07T06:33:05.307Z,30.78
2022-08-07T06:34:02.365Z,30.95
2022-08-07T06:35:02.184Z,30.55
2022-08-07T06:36:06.829Z,29.93
2022-08-07T06:37:02.800Z,29.07
2022-08-07T06:38:02.354Z,28.65
2022-08-07T06:40:16.668Z,30
2022-08-07T06:40:16.777Z,29.09
2022-08-07T06:41:02.702Z,31
2022-08-07T06:42:03.458Z,31.32
2022-08-07T06:43:02.366Z,31.62
2022-08-07T06:44:06.671Z,32.33
2022-08-07T06:45:02.555Z,32.51
2022-08-07T06:46:02.359Z,33
2022-08-07T06:47:12.245Z,33.45
2022-08-07T06:48:02.395Z,33.68
2022-08-07T06:49:04.037Z,34
2022-08-07T06:50:03.926Z,33.65
2022-08-07T06:51:08.251Z,33.42
2022-08-07T06:52:07.233Z,33.76
2022-08-07T06:53:04.088Z,33.73
2022-08-07T06:55:31.288Z,33.46
2022-08-07T06:55:33.576Z,33.73
2022-08-07T06:56:50.553Z,33.53
2022-08-07T06:57:51.995Z,33.45
2022-08-07T07:00:13.124Z,32.64
2022-08-07T07:00:13.436Z,33.53
2022-08-07T07:00:49.008Z,32.74
2022-08-07T07:01:55.101Z,32.88
2022-08-07T07:02:53.985Z,32.95
2022-08-07T07:03:57.238Z,33.63
2022-08-07T07:04:54.888Z,34.12
2022-08-07T07:06:05.488Z,33.33
2022-08-07T07:07:00.792Z,32.08
2022-08-07T07:07:58.313Z,30.98
2022-08-07T07:08:49.048Z,29.99
2022-08-07T07:09:49.102Z,29.69
2022-08-07T07:10:56.475Z,29.81
2022-08-07T07:12:07.968Z,29.43
2022-08-07T07:12:53.590Z,29.5
2022-08-07T07:13:58.741Z,30.24
2022-08-07T07:14:49.320Z,30.64
2022-08-07T07:15:51.769Z,30.33
2022-08-07T07:16:50.797Z,30.5
2022-08-07T07:17:50.527Z,31.77
2022-08-07T07:18:49.001Z,32.47
2022-08-07T07:19:58.031Z,31.62
2022-08-07T07:20:50.178Z,30.92
2022-08-07T07:22:04.634Z,30.23
2022-08-07T07:24:08.029Z,31.03
2022-08-07T07:24:08.992Z,31.77
2022-08-07T07:24:56.875Z,32.4
2022-08-07T07:26:35.244Z,32.33
2022-08-07T07:26:52.060Z,32.14
2022-08-07T07:27:55.683Z,31.55
2022-08-07T07:29:56.491Z,30.69
2022-08-07T07:30:09.077Z,31.32
2022-08-07T07:30:49.380Z,31.46
2022-08-07T07:31:49.143Z,30.56
2022-08-07T07:32:49.142Z,29.88
2022-08-07T07:33:56.411Z,30.01
2022-08-07T07:34:51.991Z,29.38
2022-08-07T07:36:03.901Z,29.44
2022-08-07T07:36:54.051Z,30.04
2022-08-07T07:38:02.103Z,30.3
2022-08-07T07:38:49.012Z,30.94
2022-08-07T07:39:52.554Z,31.77
2022-08-07T07:40:49.312Z,32.24
2022-08-07T07:41:50.860Z,32.33
2022-08-07T07:42:53.768Z,31.96
2022-08-07T07:44:17.340Z,30.96
2022-08-07T07:44:49.372Z,30.05
2022-08-07T07:46:37.036Z,29.58
2022-08-07T07:46:56.072Z,29.7
2022-08-07T07:47:52.709Z,30.22
2022-08-07T07:48:49.084Z,31.19
2022-08-07T07:50:32.692Z,31.7
2022-08-07T07:50:48.992Z,32.03
2022-08-07T07:51:58.044Z,32.8
2022-08-07T07:52:49.060Z,32.86
2022-08-07T07:53:52.482Z,32.06
2022-08-07T07:54:51.183Z,31.41
2022-08-07T07:55:57.482Z,28.94
2022-08-07T07:56:51.989Z,27.06
2022-08-07T07:57:52.937Z,25.94
2022-08-07T07:58:48.987Z,25.19
2022-08-07T07:59:51.760Z,24.59
2022-08-07T08:00:53.615Z,24.15
2022-08-07T08:02:02.469Z,23.63
2022-08-07T08:03:01.074Z,23.31
2022-08-07T08:04:06.430Z,23.14
2022-08-07T08:04:50.428Z,23.03
2022-08-07T08:05:54.957Z,22.93
2022-08-07T08:06:51.956Z,22.83
2022-08-07T08:08:00.881Z,22.68
2022-08-07T08:08:49.140Z,22.34
2022-08-07T08:09:52.563Z,22.11
2022-08-07T08:10:49.295Z,21.76
2022-08-07T08:12:02.656Z,21.55
2022-08-07T08:12:59.296Z,21.53
2022-08-07T08:13:53.760Z,21.32
2022-08-07T08:14:49.021Z,21.28
2022-08-07T08:15:58.511Z,21.27
2022-08-07T08:16:50.345Z,21.22
2022-08-07T08:17:57.136Z,21.19
2022-08-07T08:18:52.020Z,21.17
2022-08-07T08:20:17.644Z,21.11
2022-08-07T08:20:49.376Z,21.14
2022-08-07T08:21:55.815Z,21.1
2022-08-07T08:22:54.359Z,21.16
2022-08-07T08:23:48.927Z,21.3
2022-08-07T08:24:57.131Z,21.32
2022-08-07T08:25:49.792Z,21.21
2022-08-07T08:26:50.612Z,21.19
2022-08-07T08:27:56.396Z,21.24
2022-08-07T08:28:49.071Z,21.39
2022-08-07T08:29:54.524Z,21.58
2022-08-07T08:30:51.180Z,21.66
2022-08-07T08:32:17.056Z,21.78
2022-08-07T08:32:49.903Z,21.82
2022-08-07T08:33:55.291Z,21.74
2022-08-07T08:34:49.035Z,21.62
2022-08-07T08:35:49.853Z,21.56
2022-08-07T08:36:49.367Z,21.58
2022-08-07T08:38:00.814Z,21.63
2022-08-07T08:38:48.928Z,21.62
2022-08-07T08:39:54.636Z,21.66
2022-08-07T08:40:54.954Z,21.71
2022-08-07T08:41:57.556Z,21.84
2022-08-07T08:42:51.704Z,21.93
2022-08-07T08:43:55.934Z,22.01
2022-08-07T08:44:49.075Z,22.19
2022-08-07T08:45:59.013Z,22.28
2022-08-07T08:46:49.162Z,22.31
2022-08-07T08:47:52.507Z,22.4
2022-08-07T08:48:51.051Z,22.45
2022-08-07T08:50:02.554Z,22.39
2022-08-07T08:50:49.377Z,22.4
2022-08-07T08:52:14.057Z,22.42
2022-08-07T08:52:54.321Z,22.57
2022-08-07T08:53:49.052Z,22.61
2022-08-07T08:54:49.106Z,22.72
2022-08-07T08:55:53.143Z,22.85
2022-08-07T08:56:49.150Z,22.96
2022-08-07T08:57:52.065Z,22.98
2022-08-07T08:58:50.670Z,22.99
2022-08-07T08:59:50.359Z,23.03
2022-08-07T09:00:51.724Z,23.12
2022-08-07T09:01:49.721Z,23.22
2022-08-07T09:02:49.656Z,23.32
2022-08-07T09:03:52.648Z,23.35
2022-08-07T09:04:49.061Z,23.34
2022-08-07T09:05:49.297Z,23.22
2022-08-07T09:06:49.298Z,23.22
2022-08-07T09:07:57.984Z,23.26
2022-08-07T09:08:51.990Z,23.32
2022-08-07T09:09:49.019Z,23.42
2022-08-07T09:10:49.297Z,23.44
2022-08-07T09:11:53.622Z,23.52
2022-08-07T09:12:53.655Z,23.59
2022-08-07T09:13:49.327Z,23.54
2022-08-07T09:14:50.697Z,23.45
2022-08-07T09:16:23.067Z,23.5
2022-08-07T09:16:49.018Z,23.55
2022-08-07T09:17:59.368Z,23.45
2022-08-07T09:18:53.358Z,23.55
2022-08-07T09:19:55.286Z,23.65
2022-08-07T09:20:58.519Z,23.7
2022-08-07T09:22:09.635Z,23.81
2022-08-07T09:24:54.518Z,23.9
2022-08-07T09:24:58.735Z,23.94
2022-08-07T09:25:35.958Z,24.1
2022-08-07T09:26:35.639Z,24.18
2022-08-07T09:27:54.534Z,24.23
2022-08-07T09:30:05.297Z,24.26
2022-08-07T09:30:05.704Z,24.31
2022-08-07T09:30:35.879Z,24.3
2022-08-07T09:31:38.467Z,24.39
2022-08-07T09:32:35.600Z,24.4
2022-08-07T09:33:41.154Z,24.42
2022-08-07T09:34:35.765Z,24.42
2022-08-07T09:36:03.405Z,24.43
2022-08-07T09:36:37.222Z,24.49
2022-08-07T09:37:53.677Z,24.53
2022-08-07T09:38:35.688Z,24.53
2022-08-07T09:39:53.833Z,24.58
2022-08-07T09:40:35.931Z,24.7
2022-08-07T09:41:58.406Z,24.82
2022-08-07T09:42:35.679Z,24.84
2022-08-07T09:44:05.254Z,24.76
2022-08-07T09:45:03.607Z,24.7
2022-08-07T09:47:49.389Z,24.62
2022-08-07T09:47:50.261Z,24.81
2022-08-07T09:48:28.741Z,24.87
2022-08-07T09:50:02.147Z,24.97
2022-08-07T09:50:22.107Z,25.03
2022-08-07T09:52:15.776Z,25.08
2022-08-07T09:52:34.141Z,25.11
2022-08-07T09:53:22.193Z,25.13
2022-08-07T09:54:22.081Z,25.19
2022-08-07T09:55:29.296Z,25.27
2022-08-07T09:56:37.268Z,25.33
2022-08-07T09:57:22.096Z,25.38
2022-08-07T09:58:31.922Z,25.38
2022-08-07T09:59:23.393Z,25.45
2022-08-07T10:00:29.741Z,25.51
2022-08-07T10:01:51.595Z,25.54
2022-08-07T10:02:23.246Z,25.58
2022-08-07T10:04:07.172Z,25.56
2022-08-07T10:04:28.393Z,25.47
2022-08-07T10:05:29.376Z,25.52
2022-08-07T10:06:24.580Z,25.64
2022-08-07T10:07:24.575Z,25.74
2022-08-07T10:08:21.986Z,25.81
2022-08-07T10:09:23.693Z,25.91
2022-08-07T10:10:22.909Z,26.05
2022-08-07T10:12:01.578Z,26.16
2022-08-07T10:12:26.313Z,26.08
2022-08-07T10:13:55.120Z,26.11
2022-08-07T10:14:30.428Z,26.19
2022-08-07T10:15:22.152Z,26.2
2022-08-07T10:16:22.415Z,26.22
2022-08-07T10:17:22.526Z,26.31
2022-08-07T10:18:26.293Z,26.41
2022-08-07T10:19:22.170Z,26.47
2022-08-07T10:20:22.288Z,26.67
2022-08-07T10:22:12.196Z,26.93
2022-08-07T10:22:33.436Z,27.12
2022-08-07T10:24:06.185Z,27.34
2022-08-07T10:24:22.078Z,27.39
2022-08-07T10:25:42.046Z,27.5
2022-08-07T10:26:24.587Z,27.63
2022-08-07T10:27:22.136Z,27.69
2022-08-07T10:28:22.123Z,27.84
2022-08-07T10:29:22.058Z,27.9
2022-08-07T10:30:22.107Z,27.75
2022-08-07T10:31:22.342Z,27.76
2022-08-07T10:32:51.333Z,27.49
2022-08-07T10:34:06.676Z,27.28
2022-08-07T10:34:32.020Z,27.18
2022-08-07T10:35:25.786Z,27.16
2022-08-07T10:36:29.941Z,27.2
2022-08-07T10:37:48.791Z,27.21
2022-08-07T10:38:36.003Z,27.27
2022-08-07T10:39:22.110Z,27.33
2022-08-07T10:40:22.022Z,27.4
2022-08-07T10:41:46.916Z,27.47
2022-08-07T10:42:31.191Z,27.48
2022-08-07T10:43:29.827Z,27.42
2022-08-07T10:44:28.870Z,27.33
2022-08-07T10:45:45.198Z,27.29
2022-08-07T10:46:21.999Z,27.18
2022-08-07T10:47:27.144Z,26.91
2022-08-07T10:48:22.025Z,26.7
2022-08-07T10:49:45.265Z,26.69
2022-08-07T10:50:25.833Z,26.77
2022-08-07T10:51:39.255Z,26.76
2022-08-07T10:52:22.358Z,26.9
2022-08-07T10:53:22.595Z,26.78
2022-08-07T10:54:22.055Z,26.81
2022-08-07T10:55:37.157Z,26.82
2022-08-07T10:56:31.320Z,26.59
2022-08-07T10:57:34.011Z,26.56
2022-08-07T10:58:33.146Z,26.63
2022-08-07T10:59:22.257Z,26.6
2022-08-07T11:00:36.580Z,26.54
2022-08-07T11:01:23.832Z,26.47
2022-08-07T11:02:33.185Z,26.52
2022-08-07T11:03:22.096Z,26.56
2022-08-07T11:04:31.911Z,26.55
2022-08-07T11:05:24.126Z,26.49
2022-08-07T11:06:22.355Z,26.49
2022-08-07T11:07:56.436Z,26.52
2022-08-07T11:08:22.144Z,26.56
2022-08-07T11:10:07.880Z,26.67
2022-08-07T11:10:21.972Z,26.74
2022-08-07T11:11:22.433Z,26.57
2022-08-07T11:12:31.703Z,26.64
2022-08-07T11:14:44.523Z,26.32
2022-08-07T11:14:45.254Z,26.38
2022-08-07T11:15:22.076Z,26.63
2022-08-07T11:16:22.413Z,26.8
2022-08-07T11:17:23.137Z,26.77
2022-08-07T11:18:22.103Z,26.88
2022-08-07T11:19:27.274Z,26.83
2022-08-07T11:20:22.555Z,26.74
2022-08-07T11:21:22.414Z,26.84
2022-08-07T11:22:33.343Z,26.91
2022-08-07T11:23:30.503Z,26.93
2022-08-07T11:24:22.065Z,26.99
2022-08-07T11:25:25.078Z,27.05
2022-08-07T11:26:22.341Z,27.06
2022-08-07T11:27:33.578Z,27.16
2022-08-07T11:28:22.105Z,27.19
2022-08-07T11:29:43.005Z,27.23
2022-08-07T11:30:41.317Z,27.31
2022-08-07T11:31:22.343Z,27.33
2022-08-07T11:32:25.807Z,27.37
2022-08-07T11:33:59.685Z,27.52
2022-08-07T11:34:22.067Z,27.51
2022-08-07T11:35:25.046Z,27.55
2022-08-07T11:36:30.865Z,27.75
2022-08-07T11:37:24.355Z,27.59
2022-08-07T11:38:22.155Z,27.47
2022-08-07T11:39:21.981Z,27.51
2022-08-07T11:40:22.213Z,27.54
2022-08-07T11:42:00.178Z,27.39
2022-08-07T11:42:22.092Z,27.53
2022-08-07T11:43:29.512Z,27.58
2022-08-07T11:44:22.151Z,27.62
2022-08-07T11:45:23.788Z,27.74
2022-08-07T11:46:22.340Z,27.91
2022-08-07T11:47:26.148Z,28
2022-08-07T11:48:30.111Z,27.99
2022-08-07T11:49:50.244Z,27.72
2022-08-07T11:50:32.506Z,27.49
2022-08-07T11:51:35.056Z,27.44
2022-08-07T11:52:29.327Z,27.58
2022-08-07T11:53:22.073Z,27.66
2022-08-07T11:54:25.533Z,27.82
2022-08-07T11:56:11.916Z,27.94
2022-08-07T11:56:26.366Z,27.83
2022-08-07T11:57:57.818Z,27.84
2022-08-07T11:58:33.582Z,27.86
2022-08-07T12:00:10.405Z,27.79
2022-08-07T12:00:27.536Z,27.85
2022-08-07T12:01:22.350Z,27.93
2022-08-07T12:02:30.376Z,27.98
2022-08-07T12:03:44.479Z,28.01
2022-08-07T12:04:22.061Z,28.08
2022-08-07T12:05:28.753Z,28.26
2022-08-07T12:06:37.532Z,28.42
2022-08-07T12:07:38.782Z,28.54
2022-08-07T12:08:31.371Z,28.66
2022-08-07T12:09:25.094Z,28.61
2022-08-07T12:10:23.267Z,28.56
2022-08-07T12:11:22.550Z,28.52
2022-08-07T12:12:22.144Z,28.42
2022-08-07T12:13:37.256Z,28.21
2022-08-07T12:14:22.117Z,28.26
2022-08-07T12:15:45.964Z,28.42
2022-08-07T12:16:28.861Z,28.48
2022-08-07T12:17:22.207Z,28.48
2022-08-07T12:18:29.804Z,28.52
2022-08-07T12:19:22.202Z,28.42
2022-08-07T12:20:30.324Z,28.19
2022-08-07T12:22:35.741Z,28.16
2022-08-07T12:22:39.549Z,28.19
2022-08-07T12:24:04.845Z,28.01
2022-08-07T12:24:37.976Z,28.11
2022-08-07T12:26:05.338Z,28.18
2022-08-07T12:26:29.896Z,28.04
2022-08-07T12:27:28.000Z,28.06
2022-08-07T12:28:24.119Z,28.28
2022-08-07T12:29:38.867Z,28.41
2022-08-07T12:30:58.608Z,28.51
2022-08-07T12:31:22.222Z,28.6
2022-08-07T12:32:22.104Z,28.65
2022-08-07T12:33:28.227Z,28.83
2022-08-07T12:34:21.962Z,28.95
2022-08-07T12:35:22.095Z,29.01
2022-08-07T12:36:32.764Z,28.9
2022-08-07T12:37:23.340Z,28.89
2022-08-07T12:38:36.759Z,28.96
2022-08-07T12:39:44.192Z,28.78
2022-08-07T12:40:46.932Z,28.71
2022-08-07T12:41:22.452Z,28.8
2022-08-07T12:42:22.854Z,28.66
2022-08-07T12:44:01.994Z,28.58
2022-08-07T12:44:22.011Z,28.57
2022-08-07T12:45:22.106Z,28.54
2022-08-07T12:46:31.960Z,28.55
2022-08-07T12:47:27.038Z,28.53
2022-08-07T12:48:28.398Z,28.6
2022-08-07T12:49:25.316Z,28.59
2022-08-07T12:50:39.192Z,28.57
2022-08-07T12:51:22.415Z,28.61
2022-08-07T12:52:28.077Z,28.59
2022-08-07T12:53:22.420Z,28.69
2022-08-07T12:54:37.059Z,28.69
2022-08-07T12:55:22.101Z,28.56
2022-08-07T12:56:22.446Z,28.56
2022-08-07T12:57:22.155Z,28.5
2022-08-07T12:58:28.071Z,28.4
2022-08-07T12:59:22.059Z,28.22